Time;durP1;ratioP1;P1;durP2;ratioP2;P2;SDS_P1;SDS_P2;PMS_P1;PMS_P2;Temp;Humidity;BMP_temperature;BMP_pressure;BME280_temperature;BME280_humidity;BME280_pressure;Samples;Min_cycle;Max_cycle;Signal;HPM_P1;HPM_P2
2021/07/30 00:00:20;;;;;;;22.42;9.40;;;14.10;99.90;;;;;;8298013;28;20389;-64
2021/07/30 00:04:21;;;;;;;21.33;7.88;;;14.00;99.90;;;;;;8298082;28;20052;-64
2021/07/30 00:08:21;;;;;;;38.13;12.18;;;14.00;99.90;;;;;;8298145;28;20473;-64
2021/07/30 00:12:22;;;;;;;29.77;9.70;;;14.00;99.90;;;;;;8280259;28;20028;-64
2021/07/30 00:16:22;;;;;;;39.70;12.70;;;13.90;99.90;;;;;;8297795;28;20673;-64
2021/07/30 00:20:23;;;;;;;47.92;14.73;;;13.90;99.90;;;;;;8297135;28;20040;-64
2021/07/30 00:24:23;;;;;;;36.08;11.35;;;13.90;99.90;;;;;;8297485;28;20603;-64
2021/07/30 00:28:24;;;;;;;47.80;14.93;;;13.90;99.90;;;;;;8297519;28;20113;-64
2021/07/30 00:32:25;;;;;;;25.48;8.48;;;14.00;99.90;;;;;;8297135;28;20033;-64
2021/07/30 00:36:25;;;;;;;32.00;10.25;;;13.90;99.90;;;;;;8296726;28;20041;-65
2021/07/30 00:40:26;;;;;;;24.60;9.65;;;13.80;99.90;;;;;;8296907;28;20037;-64
2021/07/30 00:44:26;;;;;;;31.70;10.23;;;13.70;99.90;;;;;;8296926;28;20025;-64
2021/07/30 00:48:29;;;;;;;29.38;10.38;;;13.80;99.90;;;;;;8296960;28;20072;-64
2021/07/30 00:52:30;;;;;;;47.10;14.38;;;14.00;99.90;;;;;;8296277;28;20061;-64
2021/07/30 00:56:31;;;;;;;26.20;8.27;;;13.80;99.90;;;;;;8296357;28;20037;-64
2021/07/30 01:00:31;;;;;;;38.88;12.32;;;13.70;99.90;;;;;;8295460;28;20400;-64
2021/07/30 01:04:32;;;;;;;64.97;19.80;;;13.70;99.90;;;;;;8278615;28;20111;-64
2021/07/30 01:08:33;;;;;;;41.25;13.93;;;13.70;99.90;;;;;;8296390;28;20036;-64
2021/07/30 01:12:34;;;;;;;41.60;14.20;;;13.40;99.90;;;;;;8296036;28;20088;-64
2021/07/30 01:16:34;;;;;;;71.18;21.25;;;13.40;99.90;;;;;;8296015;28;20381;-64
2021/07/30 01:20:37;;;;;;;33.20;11.98;;;13.80;99.90;;;;;;8295646;28;20040;-64
2021/07/30 01:24:38;;;;;;;36.90;12.65;;;13.50;99.90;;;;;;8295834;28;20034;-64
2021/07/30 01:28:38;;;;;;;45.42;15.20;;;13.50;99.90;;;;;;8289710;28;20061;-64
2021/07/30 01:32:39;;;;;;;41.25;14.15;;;13.60;99.90;;;;;;8277968;28;20022;-64
2021/07/30 01:36:39;;;;;;;55.85;17.00;;;13.70;99.90;;;;;;8295009;28;20397;-64
2021/07/30 01:40:40;;;;;;;48.70;16.30;;;13.70;99.90;;;;;;8295245;28;20037;-64
2021/07/30 01:44:40;;;;;;;39.78;13.23;;;13.80;99.90;;;;;;8295065;28;20034;-64
2021/07/30 01:48:41;;;;;;;60.70;18.55;;;13.80;99.90;;;;;;8295146;28;20664;-64
2021/07/30 01:52:42;;;;;;;53.47;16.73;;;13.90;99.90;;;;;;8294468;28;20025;-64
2021/07/30 01:56:42;;;;;;;44.92;14.82;;;14.10;99.90;;;;;;8294672;28;20037;-64
2021/07/30 02:00:43;;;;;;;38.70;13.90;;;14.20;99.90;;;;;;8294399;28;20026;-64
2021/07/30 02:04:44;;;;;;;35.03;11.80;;;14.10;99.90;;;;;;8276782;28;20084;-65
2021/07/30 02:08:44;;;;;;;28.90;11.55;;;14.20;99.90;;;;;;8276952;28;20037;-64
2021/07/30 02:17:04;;;;;;;17.33;8.63;;;14.40;99.90;;;;;;8294609;28;20072;-64
2021/07/30 02:21:04;;;;;;;25.75;10.73;;;14.50;99.90;;;;;;8293952;28;20378;-64
2021/07/30 02:25:05;;;;;;;37.60;12.40;;;14.40;99.90;;;;;;8276474;28;20432;-64
2021/07/30 02:29:06;;;;;;;30.58;10.07;;;14.30;99.90;;;;;;8293904;28;20045;-64
2021/07/30 02:33:06;;;;;;;37.40;13.35;;;14.20;99.90;;;;;;8276133;28;20022;-64
2021/07/30 02:37:07;;;;;;;50.65;15.27;;;14.30;99.90;;;;;;8292871;28;20052;-64
2021/07/30 02:41:07;;;;;;;41.08;14.40;;;14.20;99.90;;;;;;8293227;28;20423;-64
2021/07/30 02:45:08;;;;;;;39.20;13.43;;;14.20;99.90;;;;;;8293280;28;20038;-64
2021/07/30 02:49:09;;;;;;;64.05;18.85;;;14.30;99.90;;;;;;8292602;28;20064;-64
2021/07/30 02:53:09;;;;;;;87.32;24.75;;;14.30;99.90;;;;;;8292642;28;20038;-64
2021/07/30 02:57:10;;;;;;;90.93;26.23;;;14.20;99.90;;;;;;8293018;28;20443;-64
2021/07/30 03:01:10;;;;;;;94.07;27.48;;;14.10;99.90;;;;;;8292753;28;20053;-64
2021/07/30 03:05:11;;;;;;;93.72;27.35;;;14.00;99.90;;;;;;8292622;28;20404;-64
2021/07/30 03:09:12;;;;;;;93.78;27.50;;;13.90;99.90;;;;;;8292806;28;20114;-64
2021/07/30 03:13:12;;;;;;;90.97;26.80;;;13.90;99.90;;;;;;8292634;28;20026;-64
2021/07/30 03:17:13;;;;;;;90.03;26.38;;;14.00;99.90;;;;;;8292680;28;20105;-64
2021/07/30 03:21:13;;;;;;;88.40;25.83;;;14.00;99.90;;;;;;8294421;28;20033;-64
2021/07/30 03:25:14;;;;;;;88.20;26.02;;;13.70;99.90;;;;;;8303232;28;20101;-64
2021/07/30 03:29:14;;;;;;;88.50;26.48;;;13.80;99.90;;;;;;8303200;28;20044;-64
2021/07/30 03:33:15;;;;;;;86.25;25.42;;;13.90;99.90;;;;;;8302619;28;20033;-64
2021/07/30 03:37:16;;;;;;;87.15;26.33;;;13.90;99.90;;;;;;8284932;28;20034;-64
2021/07/30 03:41:16;;;;;;;86.45;25.58;;;13.70;99.90;;;;;;8292584;28;20038;-64
2021/07/30 03:45:17;;;;;;;87.60;26.15;;;13.70;99.90;;;;;;8255214;28;20026;-64
2021/07/30 03:49:17;;;;;;;87.53;26.27;;;13.60;99.90;;;;;;8300045;28;20033;-64
2021/07/30 03:53:18;;;;;;;87.60;26.00;;;13.70;99.90;;;;;;8301452;28;20118;-64
2021/07/30 03:57:19;;;;;;;88.38;26.30;;;13.40;99.90;;;;;;8301614;28;20044;-64
2021/07/30 04:01:19;;;;;;;87.68;25.73;;;13.10;99.90;;;;;;8302151;28;20424;-64
2021/07/30 04:05:20;;;;;;;86.63;25.58;;;13.00;99.90;;;;;;8285072;28;20475;-64
2021/07/30 04:09:21;;;;;;;88.00;26.30;;;13.30;99.90;;;;;;8285010;28;20029;-64
2021/07/30 04:13:21;;;;;;;88.45;26.30;;;13.20;99.90;;;;;;8263734;28;20409;-64
2021/07/30 04:17:22;;;;;;;88.82;26.30;;;13.30;99.90;;;;;;8270192;28;20034;-64
2021/07/30 04:21:22;;;;;;;88.45;26.38;;;13.30;99.90;;;;;;8283953;28;20026;-69
2021/07/30 04:25:23;;;;;;;89.28;26.45;;;13.20;99.90;;;;;;8290084;28;20735;-70
2021/07/30 04:29:23;;;;;;;89.22;26.13;;;13.20;99.90;;;;;;8292437;28;20053;-70
2021/07/30 04:33:24;;;;;;;89.70;26.60;;;13.20;99.90;;;;;;8268042;28;20034;-70
2021/07/30 04:37:25;;;;;;;91.07;26.90;;;13.40;99.90;;;;;;8267427;28;20125;-71
2021/07/30 04:41:25;;;;;;;90.88;26.33;;;13.40;99.90;;;;;;8247394;28;20026;-70
2021/07/30 04:45:26;;;;;;;92.18;26.65;;;13.80;99.90;;;;;;8265096;28;20084;-70
2021/07/30 04:49:26;;;;;;;71.53;22.02;;;14.00;99.90;;;;;;8268269;28;20897;-70
2021/07/30 04:53:27;;;;;;;33.88;12.43;;;14.30;99.90;;;;;;8297139;28;20551;-71
2021/07/30 04:57:27;;;;;;;33.40;11.57;;;14.50;99.90;;;;;;8271632;28;20049;-71
2021/07/30 05:01:28;;;;;;;10.50;9.57;;;14.70;99.90;;;;;;8266052;28;20018;-71
2021/07/30 05:05:29;;;;;;;18.10;16.77;;;15.30;99.90;;;;;;8286395;28;20033;-70
2021/07/30 05:09:30;;;;;;;15.63;14.48;;;16.00;99.90;;;;;;8290533;28;20038;-73
2021/07/30 05:13:30;;;;;;;10.65;9.75;;;16.30;99.90;;;;;;8259471;28;20412;-70
2021/07/30 05:17:31;;;;;;;14.90;13.85;;;16.70;99.90;;;;;;8264327;28;20034;-70
2021/07/30 05:21:32;;;;;;;17.45;16.27;;;16.30;99.90;;;;;;8269911;28;20038;-71
2021/07/30 05:25:32;;;;;;;45.42;42.83;;;16.70;99.90;;;;;;8246634;28;20053;-70
2021/07/30 05:29:33;;;;;;;72.88;68.85;;;17.20;99.90;;;;;;8267294;28;20057;-69
2021/07/30 05:33:36;;;;;;;63.97;60.45;;;17.80;99.90;;;;;;8263330;28;20042;-66
2021/07/30 05:37:36;;;;;;;91.13;86.15;;;18.00;99.90;;;;;;8264984;28;20404;-66
2021/07/30 05:41:37;;;;;;;9.57;6.53;;;18.30;99.90;;;;;;8284104;28;20037;-65
2021/07/30 05:45:37;;;;;;;43.45;14.50;;;18.30;99.90;;;;;;8262387;28;20041;-65
2021/07/30 05:49:38;;;;;;;76.32;22.35;;;18.40;99.90;;;;;;8262376;28;20042;-65
2021/07/30 05:53:39;;;;;;;70.43;20.15;;;18.60;99.90;;;;;;8291179;28;20026;-65
2021/07/30 05:57:41;;;;;;;78.93;22.80;;;18.70;99.90;;;;;;8293221;28;20494;-66
2021/07/30 06:01:42;;;;;;;37.95;12.13;;;18.60;99.90;;;;;;8276362;28;20484;-65
2021/07/30 06:05:42;;;;;;;94.60;26.63;;;18.60;99.90;;;;;;8285807;28;20034;-65
2021/07/30 06:09:43;;;;;;;86.15;25.33;;;18.70;99.90;;;;;;8286753;28;20669;-65
2021/07/30 06:13:43;;;;;;;93.90;26.65;;;18.80;99.90;;;;;;8291753;28;20038;-65
2021/07/30 06:17:45;;;;;;;85.30;24.70;;;19.00;99.90;;;;;;8293543;28;20038;-65
2021/07/30 06:21:45;;;;;;;85.80;25.23;;;19.00;99.90;;;;;;8293544;28;20022;-65
2021/07/30 06:25:46;;;;;;;87.03;25.17;;;19.10;99.90;;;;;;8293818;28;20117;-65
2021/07/30 06:29:47;;;;;;;94.05;26.08;;;19.20;99.90;;;;;;8265072;28;20038;-65
2021/07/30 06:33:47;;;;;;;89.18;25.10;;;19.40;99.90;;;;;;8261258;28;20030;-65
2021/07/30 06:37:48;;;;;;;84.97;24.88;;;19.60;99.90;;;;;;8261181;28;20036;-65
2021/07/30 06:41:49;;;;;;;92.70;26.08;;;19.90;99.90;;;;;;8260731;28;20717;-65
2021/07/30 06:45:49;;;;;;;88.57;25.42;;;20.10;99.90;;;;;;8260939;28;20049;-65
2021/07/30 06:49:50;;;;;;;93.85;26.73;;;20.30;99.90;;;;;;8260750;28;20030;-65
2021/07/30 06:53:50;;;;;;;94.53;26.33;;;20.40;99.90;;;;;;8292404;28;20105;-65
2021/07/30 06:57:51;;;;;;;95.28;26.77;;;20.60;99.90;;;;;;8288999;28;20049;-66
2021/07/30 07:01:52;;;;;;;93.65;26.05;;;20.70;99.90;;;;;;8266527;28;20061;-66
2021/07/30 07:05:52;;;;;;;9.25;5.70;;;20.90;99.90;;;;;;8243131;28;20493;-66
2021/07/30 07:09:53;;;;;;;7.43;5.53;;;21.20;99.90;;;;;;8260477;28;20085;-65
2021/07/30 07:13:53;;;;;;;8.93;5.07;;;21.50;99.90;;;;;;8259980;28;20118;-65
2021/07/30 07:17:54;;;;;;;8.32;5.22;;;21.70;99.90;;;;;;8254612;28;20026;-65
2021/07/30 07:21:54;;;;;;;72.63;20.63;;;21.80;99.90;;;;;;8286272;28;20096;-66
2021/07/30 07:25:55;;;;;;;25.52;8.80;;;21.80;99.90;;;;;;8288777;28;20042;-65
2021/07/30 07:29:55;;;;;;;13.70;6.25;;;22.20;99.90;;;;;;8288905;28;20121;-65
2021/07/30 07:33:56;;;;;;;10.18;5.78;;;22.30;99.90;;;;;;8292178;28;20045;-65
2021/07/30 07:38:04;;;;;;;6.38;4.78;;;22.40;99.90;;;;;;8274886;28;20038;-66
2021/07/30 07:42:05;;;;;;;15.55;6.53;;;22.50;99.90;;;;;;8275165;28;20049;-65
2021/07/30 07:46:06;;;;;;;22.52;7.95;;;22.80;99.90;;;;;;8275234;28;20097;-65
2021/07/30 07:50:06;;;;;;;35.05;10.48;;;23.00;99.90;;;;;;8274655;28;20030;-65
2021/07/30 07:54:07;;;;;;;38.58;11.98;;;23.20;99.90;;;;;;8274605;28;20027;-65
2021/07/30 07:58:08;;;;;;;33.08;10.52;;;23.40;99.90;;;;;;8274244;28;20117;-66
2021/07/30 08:02:09;;;;;;;20.83;7.10;;;23.50;99.90;;;;;;8273673;28;20105;-66
2021/07/30 08:06:15;;;;;;;12.70;5.40;;;23.40;99.90;;;;;;8278049;28;20558;-65
2021/07/30 08:10:15;;;;;;;52.28;16.02;;;23.70;99.90;;;;;;8296978;28;20053;-65
2021/07/30 08:14:16;;;;;;;19.08;6.93;;;23.70;99.90;;;;;;8297934;28;20054;-66
2021/07/30 08:18:17;;;;;;;10.20;5.28;;;23.80;99.90;;;;;;8280214;28;20026;-65
2021/07/30 08:22:18;;;;;;;27.75;9.45;;;23.80;99.90;;;;;;8297336;28;20084;-65
2021/07/30 08:26:18;;;;;;;8.55;4.95;;;23.80;99.90;;;;;;8258609;28;20493;-66
2021/07/30 08:30:19;;;;;;;12.75;6.97;;;23.90;99.90;;;;;;8251051;28;20088;-66
2021/07/30 08:34:19;;;;;;;12.43;5.85;;;24.20;99.90;;;;;;8287057;28;20038;-66
2021/07/30 08:38:20;;;;;;;8.20;5.78;;;24.40;99.90;;;;;;8292777;28;20073;-66
2021/07/30 08:42:20;;;;;;;6.05;5.35;;;24.60;99.90;;;;;;8294963;28;20080;-66
2021/07/30 08:46:25;;;;;;;7.00;6.30;;;24.60;99.90;;;;;;8278842;28;20034;-66
2021/07/30 08:50:27;;;;;;;7.45;6.85;;;24.60;99.90;;;;;;8297049;28;20412;-66
2021/07/30 08:54:28;;;;;;;6.88;6.32;;;24.40;99.90;;;;;;8297015;28;20117;-66
2021/07/30 08:58:28;;;;;;;7.13;6.53;;;24.40;99.90;;;;;;8279359;28;20037;-66
2021/07/30 09:02:29;;;;;;;7.90;7.30;;;24.50;99.90;;;;;;8296502;28;20038;-66
2021/07/30 09:06:29;;;;;;;7.50;6.90;;;24.80;99.90;;;;;;8296652;28;20061;-66
2021/07/30 09:10:36;;;;;;;7.18;6.60;;;25.00;99.90;;;;;;8278475;28;20037;-67
2021/07/30 09:14:42;;;;;;;7.90;7.40;;;25.00;99.90;;;;;;8289877;28;20057;-66
2021/07/30 09:18:44;;;;;;;7.28;6.78;;;25.40;99.90;;;;;;8278111;28;20030;-66
2021/07/30 09:22:53;;;;;;;7.75;7.25;;;25.50;99.90;;;;;;8290163;28;20114;-66
2021/07/30 09:26:54;;;;;;;8.38;7.78;;;25.60;99.90;;;;;;8270263;28;20605;-66
2021/07/30 09:30:58;;;;;;;7.40;6.90;;;25.60;99.90;;;;;;8245613;28;20030;-66
2021/07/30 09:34:59;;;;;;;7.85;7.25;;;25.70;99.90;;;;;;8245680;28;20034;-66
2021/07/30 09:39:00;;;;;;;8.32;7.68;;;25.60;99.90;;;;;;8263266;28;20071;-66
2021/07/30 09:43:21;;;;;;;7.35;6.75;;;25.70;99.90;;;;;;8262691;28;20034;-66
2021/07/30 09:47:29;;;;;;;7.53;6.93;;;25.50;99.90;;;;;;8294990;28;20578;-66
2021/07/30 09:51:30;;;;;;;6.95;6.45;;;25.80;99.90;;;;;;8292831;28;20034;-66
2021/07/30 09:55:30;;;;;;;7.20;6.60;;;25.90;99.90;;;;;;8294922;28;20056;-66
2021/07/30 09:59:36;;;;;;;7.68;6.97;;;25.60;99.90;;;;;;8294937;28;20112;-66
2021/07/30 10:03:40;;;;;;;8.50;7.82;;;25.70;99.90;;;;;;8294814;28;20026;-66
2021/07/30 10:07:41;;;;;;;7.78;7.18;;;25.80;99.90;;;;;;8291384;28;20038;-66
2021/07/30 10:11:42;;;;;;;8.00;7.40;;;25.80;99.90;;;;;;8270368;28;20034;-66
2021/07/30 10:15:43;;;;;;;8.05;7.45;;;26.20;99.90;;;;;;8270413;28;20045;-66
2021/07/30 10:19:45;;;;;;;8.40;7.72;;;26.10;99.90;;;;;;8260332;28;20026;-66
2021/07/30 10:23:49;;;;;;;8.70;8.00;;;26.40;99.90;;;;;;8260947;28;20026;-66
2021/07/30 10:27:56;;;;;;;8.65;7.97;;;26.40;99.90;;;;;;8277330;28;20096;-66
2021/07/30 10:31:57;;;;;;;9.32;8.63;;;26.90;99.90;;;;;;8258040;28;20141;-67
2021/07/30 10:35:58;;;;;;;8.57;7.93;;;27.20;99.90;;;;;;8277056;28;20022;-67
2021/07/30 10:40:18;;;;;;;8.57;7.97;;;27.40;99.90;;;;;;8276923;28;20014;-66
2021/07/30 10:44:19;;;;;;;9.63;8.93;;;27.50;99.90;;;;;;8276983;28;20021;-67
2021/07/30 10:48:22;;;;;;;10.02;9.25;;;27.70;99.90;;;;;;8276306;28;20034;-66
2021/07/30 10:52:25;;;;;;;9.18;8.48;;;27.70;99.90;;;;;;8276720;28;20034;-66
2021/07/30 10:56:31;;;;;;;8.20;7.60;;;27.90;99.90;;;;;;8278131;28;20029;-66
2021/07/30 11:00:51;;;;;;;8.18;7.60;;;28.20;99.90;;;;;;8283711;28;20049;-66
2021/07/30 11:05:06;;;;;;;8.27;7.68;;;28.50;99.90;;;;;;8274849;28;20030;-66
2021/07/30 11:09:06;;;;;;;8.48;7.93;;;29.00;99.30;;;;;;8268478;28;20061;-66
2021/07/30 11:13:12;;;;;;;9.45;8.75;;;29.10;98.00;;;;;;8242728;28;20549;-66
2021/07/30 11:17:14;;;;;;;9.05;8.40;;;29.00;97.80;;;;;;8260243;28;20034;-66
2021/07/30 11:21:14;;;;;;;8.13;7.53;;;29.10;97.90;;;;;;8275717;28;20429;-66
2021/07/30 11:25:15;;;;;;;9.57;8.88;;;29.40;97.10;;;;;;8282106;28;20034;-66
2021/07/30 11:29:17;;;;;;;9.68;8.95;;;29.80;95.50;;;;;;8273433;28;20042;-66
2021/07/30 11:33:18;;;;;;;12.45;11.68;;;32.80;88.00;;;;;;8247781;28;20029;-66
2021/07/30 11:37:25;;;;;;;12.93;12.02;;;33.20;82.40;;;;;;8275115;28;20461;-67
2021/07/30 11:41:25;;;;;;;11.30;10.52;;;34.00;76.10;;;;;;8274271;28;20496;-66
2021/07/30 11:45:26;;;;;;;13.35;12.48;;;34.60;70.00;;;;;;8298490;28;20032;-66
2021/07/30 11:49:35;;;;;;;10.27;9.57;;;34.90;65.70;;;;;;8298534;28;20037;-66
2021/07/30 11:53:38;;;;;;;9.95;9.35;;;34.30;70.80;;;;;;8281259;28;20065;-66
2021/07/30 11:57:39;;;;;;;11.73;10.93;;;36.20;62.60;;;;;;8297977;28;20030;-66
2021/07/30 12:01:40;;;;;;;10.35;9.65;;;36.30;58.90;;;;;;8280151;28;20583;-67
2021/07/30 12:05:40;;;;;;;11.05;10.25;;;36.90;58.30;;;;;;8298018;28;20038;-67
2021/07/30 12:09:42;;;;;;;11.20;10.40;;;37.20;59.10;;;;;;8280772;28;20540;-66
2021/07/30 12:13:42;;;;;;;9.07;8.38;;;38.00;54.50;;;;;;8295415;28;20056;-67
2021/07/30 12:17:43;;;;;;;7.43;6.85;;;36.40;57.80;;;;;;8285338;28;20038;-66
2021/07/30 12:21:54;;;;;;;6.68;6.18;;;35.30;58.50;;;;;;8287300;28;20437;-66
2021/07/30 12:25:56;;;;;;;7.40;6.80;;;33.70;64.40;;;;;;8281892;28;20037;-66
2021/07/30 12:29:56;;;;;;;6.00;5.50;;;33.20;65.60;;;;;;8261566;28;20124;-66
2021/07/30 12:34:17;;;;;;;6.43;5.88;;;33.00;64.20;;;;;;8264238;28;20512;-66
2021/07/30 12:38:19;;;;;;;5.68;5.18;;;32.70;69.40;;;;;;8280859;28;20477;-67
2021/07/30 12:42:26;;;;;;;5.30;4.80;;;32.30;67.10;;;;;;8261567;28;20497;-66
2021/07/30 12:46:36;;;;;;;5.68;5.10;;;32.60;65.20;;;;;;8259264;28;20080;-66
2021/07/30 12:50:39;;;;;;;7.50;5.22;;;32.50;66.70;;;;;;8281022;28;20504;-66
2021/07/30 12:54:40;;;;;;;8.65;5.40;;;32.00;68.70;;;;;;8260578;28;20140;-66
2021/07/30 12:58:52;;;;;;;6.18;5.63;;;32.40;70.30;;;;;;8279447;28;20050;-66
2021/07/30 13:02:53;;;;;;;6.97;5.93;;;33.80;67.60;;;;;;8281890;28;20033;-66
2021/07/30 13:06:56;;;;;;;8.30;7.63;;;35.50;63.00;;;;;;8280998;28;20072;-66
2021/07/30 13:10:57;;;;;;;9.43;8.73;;;38.10;57.40;;;;;;8261769;28;20028;-66
2021/07/30 13:14:57;;;;;;;11.80;10.90;;;40.10;53.70;;;;;;8262493;28;20492;-66
2021/07/30 13:18:58;;;;;;;8.35;7.75;;;40.60;50.90;;;;;;8295606;28;20034;-66
2021/07/30 13:22:58;;;;;;;9.18;8.48;;;40.10;49.90;;;;;;8292875;28;20707;-67
2021/07/30 13:26:59;;;;;;;11.35;10.65;;;39.70;50.80;;;;;;8275424;28;20033;-67
2021/07/30 13:31:00;;;;;;;8.88;8.27;;;40.80;48.60;;;;;;8294070;28;20045;-66
2021/07/30 13:35:00;;;;;;;8.43;7.82;;;40.30;48.40;;;;;;8294679;28;20404;-67
2021/07/30 13:39:01;;;;;;;6.97;6.47;;;40.00;48.40;;;;;;8295660;28;20545;-66
2021/07/30 13:43:06;;;;;;;7.75;7.22;;;40.10;50.50;;;;;;8277540;28;20600;-66
2021/07/30 13:47:06;;;;;;;8.85;8.25;;;40.00;47.70;;;;;;8277519;28;20030;-67
2021/07/30 13:51:07;;;;;;;10.13;9.43;;;40.10;48.40;;;;;;8294654;28;20057;-67
2021/07/30 13:55:08;;;;;;;10.68;9.98;;;41.50;47.70;;;;;;8294761;28;20038;-67
2021/07/30 13:59:08;;;;;;;8.52;7.93;;;42.20;45.10;;;;;;8294873;28;20487;-66
2021/07/30 14:03:09;;;;;;;7.60;7.10;;;40.80;47.40;;;;;;8277401;28;20090;-66
2021/07/30 14:07:09;;;;;;;11.73;10.95;;;41.60;45.20;;;;;;8285488;28;20026;-67
2021/07/30 14:11:14;;;;;;;9.45;8.85;;;42.60;44.10;;;;;;8290598;28;20041;-66
2021/07/30 14:15:15;;;;;;;10.57;9.88;;;41.20;45.30;;;;;;8274211;28;20699;-66
2021/07/30 14:19:16;;;;;;;9.35;8.75;;;41.50;46.80;;;;;;8292805;28;20444;-66
2021/07/30 14:23:17;;;;;;;11.98;11.18;;;41.80;43.00;;;;;;8292057;28;20075;-66
2021/07/30 14:27:17;;;;;;;13.25;12.40;;;42.00;43.10;;;;;;8291207;28;20036;-66
2021/07/30 14:31:18;;;;;;;13.73;12.93;;;42.90;42.10;;;;;;8274834;28;20033;-66
2021/07/30 14:35:18;;;;;;;13.13;12.32;;;43.30;41.20;;;;;;8293840;28;20511;-66
2021/07/30 14:39:25;;;;;;;12.70;12.00;;;43.40;41.20;;;;;;8294035;28;20018;-66
2021/07/30 14:43:25;;;;;;;12.45;11.75;;;42.70;41.30;;;;;;8293100;28;20496;-66
2021/07/30 14:47:26;;;;;;;12.75;11.95;;;41.30;43.00;;;;;;8273996;28;20033;-66
2021/07/30 14:51:27;;;;;;;14.07;13.18;;;41.10;44.60;;;;;;8273877;28;20062;-67
2021/07/30 14:55:28;;;;;;;14.68;13.77;;;41.50;41.40;;;;;;8264444;28;20033;-66
2021/07/30 14:59:29;;;;;;;9.80;9.20;;;41.30;42.90;;;;;;8276443;28;20382;-66
2021/07/30 15:03:29;;;;;;;8.88;8.27;;;38.70;45.20;;;;;;8284861;28;20485;-66
2021/07/30 15:07:30;;;;;;;7.05;6.55;;;36.60;49.90;;;;;;8270931;28;20033;-66
2021/07/30 15:11:30;;;;;;;7.00;6.50;;;36.10;51.40;;;;;;8278799;28;20032;-66
2021/07/30 15:15:31;;;;;;;6.18;5.68;;;36.00;52.50;;;;;;8265898;28;20041;-66
2021/07/30 15:19:31;;;;;;;6.60;5.10;;;34.60;54.50;;;;;;8257643;28;20052;-66
2021/07/30 15:23:32;;;;;;;7.07;4.35;;;33.50;57.20;;;;;;8281039;28;20031;-66
2021/07/30 15:27:33;;;;;;;62.45;17.63;;;32.60;59.20;;;;;;8272582;28;20160;-66
2021/07/30 15:31:34;;;;;;;6.82;4.38;;;31.90;60.70;;;;;;8275564;28;20030;-66
2021/07/30 15:35:35;;;;;;;7.45;4.28;;;31.60;62.30;;;;;;8278835;28;20029;-66
2021/07/30 15:39:35;;;;;;;72.05;20.13;;;31.30;64.70;;;;;;8281108;28;20420;-66
2021/07/30 15:43:36;;;;;;;90.28;25.90;;;30.80;65.90;;;;;;8275454;28;20021;-66
2021/07/30 15:47:37;;;;;;;89.82;25.60;;;30.00;67.70;;;;;;8257980;28;20117;-66
2021/07/30 15:51:38;;;;;;;88.10;25.80;;;29.50;70.30;;;;;;8273016;28;20575;-66
2021/07/30 15:55:38;;;;;;;87.72;25.73;;;29.10;72.10;;;;;;8264602;28;20057;-66
2021/07/30 15:59:39;;;;;;;88.57;25.63;;;28.70;74.80;;;;;;8291518;28;20038;-66
2021/07/30 16:03:40;;;;;;;86.90;25.33;;;28.50;77.00;;;;;;8260795;28;20554;-65
2021/07/30 16:07:40;;;;;;;86.78;24.90;;;28.20;78.30;;;;;;8262883;28;20026;-65
2021/07/30 16:11:41;;;;;;;84.85;25.20;;;27.80;79.40;;;;;;8274214;28;20561;-65
2021/07/30 16:15:41;;;;;;;86.70;25.35;;;27.40;82.30;;;;;;8285555;28;20030;-65
2021/07/30 16:19:43;;;;;;;86.88;25.20;;;27.00;84.70;;;;;;8273983;28;20493;-65
2021/07/30 16:23:44;;;;;;;86.07;24.65;;;26.80;85.20;;;;;;8257734;28;20037;-66
2021/07/30 16:27:47;;;;;;;84.38;25.05;;;26.60;87.60;;;;;;8269727;28;20034;-65
2021/07/30 16:31:47;;;;;;;81.20;24.50;;;26.40;88.70;;;;;;8278919;28;20511;-65
2021/07/30 16:35:48;;;;;;;75.50;23.80;;;26.10;90.90;;;;;;8285110;28;20052;-65
2021/07/30 16:39:49;;;;;;;80.07;24.65;;;25.50;93.20;;;;;;8261092;28;20549;-63
2021/07/30 16:43:50;;;;;;;77.68;24.38;;;24.20;96.70;;;;;;8291395;28;20033;-64
2021/07/30 16:47:50;;;;;;;79.35;25.00;;;22.70;99.90;;;;;;8276361;28;20050;-64
2021/07/30 16:51:51;;;;;;;72.18;23.88;;;22.00;99.90;;;;;;8277773;28;20492;-64
2021/07/30 16:55:51;;;;;;;70.65;23.02;;;21.80;99.90;;;;;;8258220;28;20028;-64
2021/07/30 16:59:52;;;;;;;71.05;23.58;;;21.70;99.90;;;;;;8260879;28;20049;-64
2021/07/30 17:03:53;;;;;;;76.78;25.70;;;21.70;99.90;;;;;;8281932;28;20037;-64
2021/07/30 17:07:54;;;;;;;76.70;24.80;;;21.70;99.90;;;;;;8276625;28;20057;-65
2021/07/30 17:11:54;;;;;;;75.78;24.23;;;21.70;99.90;;;;;;8273467;28;20023;-65
2021/07/30 17:15:55;;;;;;;75.45;24.55;;;21.70;99.90;;;;;;8255390;28;20046;-65
2021/07/30 17:19:56;;;;;;;73.63;24.48;;;21.80;99.90;;;;;;8275339;28;20030;-65
2021/07/30 17:23:57;;;;;;;69.82;22.98;;;21.80;99.90;;;;;;8259076;28;20117;-65
2021/07/30 17:27:57;;;;;;;71.30;23.48;;;21.90;99.90;;;;;;8275166;28;20037;-65
2021/07/30 17:31:58;;;;;;;70.35;23.63;;;21.70;99.90;;;;;;8261868;28;20046;-66
2021/07/30 17:35:59;;;;;;;69.78;23.40;;;21.50;99.90;;;;;;8288822;28;20036;-65
2021/07/30 17:39:59;;;;;;;67.35;23.13;;;21.50;99.90;;;;;;8281978;28;20133;-65
2021/07/30 17:44:00;;;;;;;65.32;22.98;;;21.30;99.90;;;;;;8284457;28;20065;-65
2021/07/30 17:48:00;;;;;;;66.95;22.75;;;21.40;99.90;;;;;;8275595;28;20049;-65
2021/07/30 17:52:01;;;;;;;67.03;23.10;;;21.60;99.90;;;;;;8274038;28;20034;-65
2021/07/30 17:56:02;;;;;;;67.53;23.00;;;21.80;99.90;;;;;;8266626;28;20512;-65
2021/07/30 18:00:04;;;;;;;68.55;22.90;;;21.70;99.90;;;;;;8265479;28;20072;-65
2021/07/30 18:04:04;;;;;;;66.15;22.50;;;21.80;99.90;;;;;;8288786;28;20034;-65
2021/07/30 18:08:06;;;;;;;65.45;23.27;;;21.70;99.90;;;;;;8282560;28;20475;-66
2021/07/30 18:12:07;;;;;;;65.38;22.52;;;21.80;99.90;;;;;;8272910;28;20058;-65
2021/07/30 18:16:09;;;;;;;65.90;22.75;;;21.80;99.90;;;;;;8275867;28;20021;-66
2021/07/30 18:20:10;;;;;;;64.75;22.88;;;21.60;99.90;;;;;;8294313;28;20022;-65
2021/07/30 18:24:11;;;;;;;64.00;22.60;;;21.40;99.90;;;;;;8276620;28;20121;-66
2021/07/30 18:28:12;;;;;;;63.13;22.17;;;21.40;99.90;;;;;;8294453;28;20034;-66
2021/07/30 18:32:12;;;;;;;62.90;21.83;;;21.30;99.90;;;;;;8293925;28;20033;-65
2021/07/30 18:36:13;;;;;;;61.47;22.05;;;21.10;99.90;;;;;;8294167;28;20112;-66
2021/07/30 18:40:16;;;;;;;60.75;22.73;;;20.90;99.90;;;;;;8294053;28;20045;-66
2021/07/30 18:44:17;;;;;;;59.00;21.90;;;20.80;99.90;;;;;;8294663;28;20034;-66
2021/07/30 18:48:18;;;;;;;59.38;22.15;;;20.70;99.90;;;;;;8294579;28;20092;-65
2021/07/30 18:52:19;;;;;;;59.88;21.90;;;20.60;99.90;;;;;;8292506;28;20038;-66
2021/07/30 18:56:20;;;;;;;60.67;22.02;;;20.50;99.90;;;;;;8293454;28;20132;-65
2021/07/30 19:00:21;;;;;;;61.15;22.67;;;20.40;99.90;;;;;;8293339;28;20116;-66
2021/07/30 19:04:22;;;;;;;61.63;22.27;;;20.20;99.90;;;;;;8275899;28;20041;-65
2021/07/30 19:08:22;;;;;;;61.75;22.13;;;20.10;99.90;;;;;;8293503;28;20026;-66
2021/07/30 19:12:23;;;;;;;61.50;22.17;;;20.00;99.90;;;;;;8292594;28;20037;-66
2021/07/30 19:16:25;;;;;;;62.38;22.33;;;20.00;99.90;;;;;;8275007;28;20398;-66
2021/07/30 19:20:26;;;;;;;62.63;22.85;;;20.00;99.90;;;;;;8292724;28;20069;-66
2021/07/30 19:24:27;;;;;;;61.65;22.08;;;20.10;99.90;;;;;;8275850;28;20076;-65
2021/07/30 19:28:27;;;;;;;62.88;22.33;;;20.10;99.90;;;;;;8293061;28;20026;-65
2021/07/30 19:32:28;;;;;;;62.50;22.23;;;20.20;99.90;;;;;;8292598;28;20029;-65
2021/07/30 19:36:29;;;;;;;61.78;21.90;;;20.20;99.90;;;;;;8292963;28;20057;-65
2021/07/30 19:40:30;;;;;;;61.08;22.13;;;20.20;99.90;;;;;;8292810;28;20037;-65
2021/07/30 19:44:30;;;;;;;59.88;22.05;;;20.30;99.90;;;;;;8275332;28;20057;-65
2021/07/30 19:48:31;;;;;;;61.67;22.98;;;20.20;99.90;;;;;;8291212;28;20038;-65
2021/07/30 19:52:32;;;;;;;58.50;21.98;;;20.10;99.90;;;;;;8289285;28;20021;-64
2021/07/30 19:56:36;;;;;;;59.67;22.42;;;19.90;99.90;;;;;;8292487;28;20100;-65
2021/07/30 20:00:37;;;;;;;58.05;21.70;;;19.80;99.90;;;;;;8292335;28;20025;-65
2021/07/30 20:04:37;;;;;;;57.33;21.95;;;19.70;99.90;;;;;;8277948;28;20555;-65
2021/07/30 20:08:38;;;;;;;56.10;21.73;;;19.60;99.90;;;;;;8298896;28;20762;-65
2021/07/30 20:12:39;;;;;;;55.42;21.50;;;19.50;99.90;;;;;;8297887;28;20038;-65
2021/07/30 20:16:39;;;;;;;55.67;21.48;;;19.50;99.90;;;;;;8297855;28;20053;-65
2021/07/30 20:20:43;;;;;;;55.63;21.75;;;19.30;99.90;;;;;;8294496;28;20526;-65
2021/07/30 20:24:43;;;;;;;55.20;21.30;;;19.20;99.90;;;;;;8274794;28;20089;-64
2021/07/30 20:28:45;;;;;;;55.45;21.92;;;19.20;99.90;;;;;;8246811;28;20073;-65
2021/07/30 20:32:45;;;;;;;53.38;21.33;;;19.10;99.90;;;;;;8262547;28;20554;-65
2021/07/30 20:36:46;;;;;;;53.47;21.30;;;18.90;99.90;;;;;;8244947;28;20041;-65